Ruskin, NE (68974)

11:37 AM CDT die 30o October, anno 2014 (GMT -0500)
North Superior | Change Station
CLOSE
Current Station
Personal Weather Stations
Location: Superior, NE
Elevation: 1617 ft
Nearby Weather Stations

Elev 1617 ft 40.03 °N, 98.07 °W | Updated 1 second ago

Serena
Serena
61.6 °F
Feels Like 61.6 °F
N
10.0
Ventus Variabilis Ventus from Inter Aquilonem et Zephyrus
Gusts 15.0 mph

Hodie
High -- | Low -- °F
--% Chance of Precip.
Yesterday
High -- | Low -- °F
Precip. -- in
7:58 AM 6:31 PM
Waxing Crescent, 45% visible
Pressio 30.14 in
Visibilitas 10.0 milia passuum
Clouds Serena
Frigus in quo Ros apparet 39 °F
Umor 43%
Rainfall 0.00 in
Snow Depth Not available.
UV 3 out of 12
Pollen 2.40 out of 12
Air Quality Not available.
Flu Activity Not available.
METAR KHJH 301615Z AUTO 33013G20KT 10SM CLR 16/02 A3014 RMK AO2 T01580018

More Conditions Fewer Conditions

Pressio 30.14 in
Visibilitas 10.0 milia passuum
Clouds Serena
Frigus in quo Ros apparet 39 °F
Umor 43%
Rainfall 0.00 in
Snow Depth Not available.
UV 3 out of 12
Pollen 2.40 out of 12
Air Quality Not available.
Flu Activity Not available.
METAR KHJH 301615Z AUTO 33013G20KT 10SM CLR 16/02 A3014 RMK AO2 T01580018

More Conditions Fewer Conditions

10-Day Weather Forecast

Almanac

Astronomy

Oct. 30, 2014 Rise Set
Actual Time
Civil Twilight
Nautical Twilight
Astronomical Twilight
Moon
Length Of Visible Light
Length of Day
Tomorrow will be .
, % of the Moon is Illuminated

Today's Extremes

State Highs State Lows

Community

WunderPhotos

Upload Photos

1,766,399 photos uploaded!

WunderBlogs® & News

Nearby

Air Quality

  Air Quality AQ Index Pollutant
Not available.

Snow Depth

Station Depth Elevation

Earthquake Activity

City Distance Mag. Time & Date
Minimum magnitude displayed is 2.5.

Coastal Water Temperatures

Locus Calor

Nearby Weather Stations